Time;durP1;ratioP1;P1;durP2;ratioP2;P2;SDS_P1;SDS_P2;PMS_P1;PMS_P2;Temp;Humidity;BMP_temperature;BMP_pressure;BME280_temperature;BME280_humidity;BME280_pressure;Samples;Min_cycle;Max_cycle;Signal;HPM_P1;HPM_P2
2024/03/10 00:00:14;;;;;;;4.90;4.47;;;7.80;99.90;;;;;;5049511;28;20227;-75
2024/03/10 00:02:43;;;;;;;4.78;4.38;;;7.90;99.90;;;;;;5044314;28;20632;-74
2024/03/10 00:05:12;;;;;;;5.18;4.78;;;7.90;99.90;;;;;;5041302;28;20357;-75
2024/03/10 00:07:39;;;;;;;5.03;4.63;;;7.90;99.90;;;;;;5039286;28;20216;-75
2024/03/10 00:10:07;;;;;;;4.68;4.28;;;7.80;99.90;;;;;;5041136;28;20230;-73
2024/03/10 00:12:34;;;;;;;4.30;4.00;;;7.80;99.90;;;;;;5038224;28;20301;-75
2024/03/10 00:15:01;;;;;;;4.40;4.10;;;7.80;99.90;;;;;;5040637;28;20222;-75
2024/03/10 00:17:30;;;;;;;4.38;4.07;;;7.80;99.90;;;;;;5040719;28;20219;-74
2024/03/10 00:19:57;;;;;;;4.05;3.75;;;7.80;99.90;;;;;;5041269;28;20357;-76
2024/03/10 00:22:24;;;;;;;4.60;4.28;;;7.80;99.90;;;;;;5039232;28;20226;-75
2024/03/10 00:24:51;;;;;;;4.50;4.10;;;7.80;99.90;;;;;;5041119;28;20697;-75
2024/03/10 00:27:18;;;;;;;4.38;4.03;;;7.90;99.90;;;;;;5039079;28;20304;-74
2024/03/10 00:29:45;;;;;;;4.53;4.13;;;7.90;99.90;;;;;;5042346;28;20242;-74
2024/03/10 00:32:12;;;;;;;4.43;4.10;;;7.90;99.90;;;;;;5040872;28;20695;-74
2024/03/10 00:34:42;;;;;;;4.60;4.30;;;7.90;99.90;;;;;;5040591;28;20234;-75
2024/03/10 00:37:11;;;;;;;4.47;4.10;;;7.90;99.90;;;;;;5038005;28;20229;-75
2024/03/10 00:39:37;;;;;;;4.43;4.13;;;7.90;99.90;;;;;;5039985;28;20699;-76
2024/03/10 00:42:06;;;;;;;4.60;4.20;;;7.90;99.90;;;;;;5039779;28;20242;-76
2024/03/10 00:44:32;;;;;;;4.72;4.32;;;7.90;99.90;;;;;;5039867;28;20236;-74
2024/03/10 00:46:59;;;;;;;4.60;4.20;;;7.90;99.90;;;;;;5041710;28;20242;-74
2024/03/10 00:49:26;;;;;;;4.68;4.38;;;7.90;99.90;;;;;;5039890;28;20227;-74
2024/03/10 00:51:54;;;;;;;5.18;4.78;;;7.90;99.90;;;;;;5036478;28;20688;-75
2024/03/10 00:54:21;;;;;;;5.68;5.18;;;7.90;99.90;;;;;;5040212;28;20231;-74
2024/03/10 00:56:48;;;;;;;5.20;4.80;;;7.80;99.90;;;;;;5043956;28;20247;-75
2024/03/10 00:59:16;;;;;;;4.72;4.32;;;7.70;99.90;;;;;;5048066;28;20219;-75
2024/03/10 01:01:43;;;;;;;4.25;3.95;;;7.70;99.90;;;;;;5044147;28;20306;-74
2024/03/10 01:04:10;;;;;;;4.57;4.18;;;7.70;99.90;;;;;;5045513;28;20320;-75
2024/03/10 01:06:37;;;;;;;4.30;4.00;;;7.70;99.90;;;;;;5041958;28;21428;-74
2024/03/10 01:09:08;;;;;;;4.22;3.92;;;7.80;99.90;;;;;;5041620;28;20219;-75
2024/03/10 01:11:37;;;;;;;4.13;3.83;;;7.80;99.90;;;;;;5041443;28;20272;-75
2024/03/10 01:14:05;;;;;;;4.03;3.72;;;7.90;99.90;;;;;;5043262;28;20297;-75
2024/03/10 01:16:32;;;;;;;4.20;3.90;;;7.90;99.90;;;;;;5039956;28;20227;-74
2024/03/10 01:18:59;;;;;;;4.35;4.05;;;7.90;99.90;;;;;;5039960;28;20258;-74
2024/03/10 01:21:26;;;;;;;4.40;4.10;;;7.90;99.90;;;;;;5040850;28;20284;-75
2024/03/10 01:23:53;;;;;;;4.70;4.30;;;7.90;99.90;;;;;;5040740;28;20306;-74
2024/03/10 01:26:22;;;;;;;4.45;4.15;;;7.80;99.90;;;;;;5040805;28;20280;-76
2024/03/10 01:28:49;;;;;;;4.60;4.20;;;7.80;99.90;;;;;;5043753;28;20238;-73
2024/03/10 01:31:17;;;;;;;5.15;4.05;;;7.80;99.90;;;;;;5042278;28;20653;-73
2024/03/10 01:33:44;;;;;;;4.25;3.92;;;7.80;99.90;;;;;;5040642;28;20202;-74
2024/03/10 01:36:11;;;;;;;3.70;3.40;;;7.80;99.90;;;;;;5043572;28;20305;-74
2024/03/10 01:38:39;;;;;;;4.05;3.75;;;7.80;99.90;;;;;;5045325;28;20262;-76
2024/03/10 01:41:06;;;;;;;3.28;3.08;;;7.90;99.90;;;;;;5042282;28;20301;-76
2024/03/10 01:43:34;;;;;;;4.13;3.83;;;7.90;99.90;;;;;;5046436;28;20248;-75
2024/03/10 01:46:06;;;;;;;4.20;3.83;;;7.90;99.90;;;;;;5045119;28;20758;-74
2024/03/10 01:48:34;;;;;;;4.07;3.78;;;7.80;99.90;;;;;;5047265;28;20218;-76
2024/03/10 01:51:00;;;;;;;4.30;4.00;;;7.80;99.90;;;;;;5045020;28;20298;-74
2024/03/10 01:53:31;;;;;;;4.32;4.03;;;7.90;99.90;;;;;;5039574;28;21044;-76
2024/03/10 01:55:59;;;;;;;4.10;3.80;;;7.90;99.90;;;;;;5039806;28;20229;-76
2024/03/10 01:58:27;;;;;;;4.50;4.20;;;7.90;99.90;;;;;;5043563;28;20207;-77
2024/03/10 02:00:57;;;;;;;4.22;3.90;;;7.80;99.90;;;;;;5043788;28;20302;-78
2024/03/10 02:03:24;;;;;;;4.50;4.18;;;7.80;99.90;;;;;;5041544;28;20665;-76
2024/03/10 02:05:52;;;;;;;4.45;4.15;;;7.80;99.90;;;;;;5039974;28;20259;-76
2024/03/10 02:08:19;;;;;;;4.30;3.90;;;7.80;99.90;;;;;;5041889;28;20250;-74
2024/03/10 02:10:48;;;;;;;3.80;3.58;;;7.70;99.90;;;;;;5040013;28;20199;-75
2024/03/10 02:13:16;;;;;;;3.38;3.17;;;7.70;99.90;;;;;;5039926;28;20941;-75
2024/03/10 02:15:43;;;;;;;3.55;3.35;;;7.70;99.90;;;;;;5038794;28;20219;-75
2024/03/10 02:18:12;;;;;;;3.15;2.95;;;7.80;99.90;;;;;;5040305;28;20300;-76
2024/03/10 02:20:40;;;;;;;2.40;2.30;;;7.80;99.90;;;;;;5039452;28;20207;-74
2024/03/10 02:23:07;;;;;;;2.50;2.40;;;7.80;99.90;;;;;;5041484;28;20685;-77
2024/03/10 02:25:42;;;;;;;2.40;2.30;;;7.80;99.90;;;;;;5039668;28;20589;-74
2024/03/10 02:28:20;;;;;;;2.50;2.40;;;7.90;99.90;;;;;;5035687;28;20833;-75
2024/03/10 02:30:55;;;;;;;2.05;1.95;;;7.90;99.90;;;;;;5042290;28;20206;-74
2024/03/10 02:47:17;;;;;;;3.75;3.55;;;7.90;99.90;;;;;;5038744;28;20234;-76
2024/03/10 02:49:46;;;;;;;3.78;3.50;;;7.80;99.90;;;;;;5043574;28;20226;-76
2024/03/10 02:52:13;;;;;;;4.38;4.05;;;7.80;99.90;;;;;;5035707;28;20222;-75
2024/03/10 02:54:40;;;;;;;4.22;3.92;;;7.70;99.90;;;;;;5040892;28;20207;-75
2024/03/10 02:57:09;;;;;;;4.65;4.32;;;7.70;99.90;;;;;;5046572;28;20280;-75
2024/03/10 02:59:35;;;;;;;5.05;4.65;;;7.60;99.90;;;;;;5042913;28;20283;-74
2024/03/10 03:02:02;;;;;;;4.03;3.72;;;7.60;99.90;;;;;;5043402;28;20245;-75
2024/03/10 03:04:30;;;;;;;4.40;4.10;;;7.50;99.90;;;;;;5046044;28;20222;-75
2024/03/10 03:06:57;;;;;;;4.70;4.30;;;7.60;99.90;;;;;;5049323;28;20284;-75
2024/03/10 03:09:24;;;;;;;4.68;4.32;;;7.60;99.90;;;;;;5045176;28;20276;-75
2024/03/10 03:11:51;;;;;;;4.00;3.70;;;7.70;99.90;;;;;;5044727;28;20735;-76
2024/03/10 03:14:20;;;;;;;4.10;3.80;;;7.70;99.90;;;;;;5045510;28;20619;-75
2024/03/10 03:16:47;;;;;;;3.90;3.60;;;7.70;99.90;;;;;;5044579;28;20319;-74
2024/03/10 03:19:14;;;;;;;3.95;3.65;;;7.60;99.90;;;;;;5047809;28;20218;-77
2024/03/10 03:21:42;;;;;;;4.05;3.75;;;7.60;99.90;;;;;;5045028;28;20219;-75
2024/03/10 03:24:13;;;;;;;3.90;3.60;;;7.60;99.90;;;;;;5044908;28;20207;-75
2024/03/10 03:26:40;;;;;;;4.10;3.80;;;7.60;99.90;;;;;;5046604;28;20243;-76
2024/03/10 03:29:08;;;;;;;4.32;4.03;;;7.60;99.90;;;;;;5045170;28;20226;-75
2024/03/10 03:31:37;;;;;;;3.95;3.65;;;7.60;99.90;;;;;;5042839;28;20734;-76
2024/03/10 03:34:04;;;;;;;4.07;3.78;;;7.60;99.90;;;;;;5041034;28;20738;-75
2024/03/10 03:36:31;;;;;;;4.22;3.92;;;7.60;99.90;;;;;;5041676;28;20288;-73
2024/03/10 03:38:58;;;;;;;4.05;3.75;;;7.60;99.90;;;;;;5040740;28;20219;-77
2024/03/10 03:41:26;;;;;;;3.50;3.30;;;7.60;99.90;;;;;;5044384;28;20218;-75
2024/03/10 03:43:53;;;;;;;4.10;3.80;;;7.70;99.90;;;;;;5043720;28;20207;-74
2024/03/10 03:46:20;;;;;;;3.30;3.10;;;7.70;99.90;;;;;;5037435;28;20250;-76
2024/03/10 03:48:48;;;;;;;3.47;3.17;;;7.70;99.90;;;;;;5042916;28;20292;-75
2024/03/10 03:51:16;;;;;;;3.30;3.10;;;7.80;99.90;;;;;;5044288;28;20218;-74
2024/03/10 03:53:44;;;;;;;3.40;3.20;;;7.80;99.90;;;;;;5044325;28;20259;-76
2024/03/10 03:56:11;;;;;;;3.63;3.40;;;7.80;99.90;;;;;;5048987;28;20257;-76
2024/03/10 03:58:38;;;;;;;4.35;4.05;;;7.70;99.90;;;;;;5044619;28;20227;-75
2024/03/10 04:01:05;;;;;;;3.40;3.20;;;7.70;99.90;;;;;;5038267;28;20869;-76
2024/03/10 04:03:32;;;;;;;3.65;3.45;;;7.60;99.90;;;;;;5042081;28;20200;-75
2024/03/10 04:06:01;;;;;;;4.20;3.90;;;7.60;99.90;;;;;;5041265;28;20240;-74
2024/03/10 04:08:28;;;;;;;4.38;3.97;;;7.60;99.90;;;;;;5041901;28;20288;-76
2024/03/10 04:10:54;;;;;;;4.07;3.78;;;7.60;99.90;;;;;;5041048;28;20222;-74
2024/03/10 04:13:21;;;;;;;4.25;3.97;;;7.60;99.90;;;;;;5039392;28;20223;-74
2024/03/10 04:15:48;;;;;;;3.80;3.60;;;7.60;99.90;;;;;;5040998;28;20198;-75
2024/03/10 04:18:16;;;;;;;3.70;3.40;;;7.60;99.90;;;;;;5039246;28;20242;-76
2024/03/10 04:20:46;;;;;;;4.00;3.60;;;7.70;99.90;;;;;;5039270;28;20288;-74
2024/03/10 04:23:15;;;;;;;4.22;3.83;;;7.70;99.90;;;;;;5038201;28;20325;-74
2024/03/10 04:25:42;;;;;;;6.07;5.57;;;7.70;99.90;;;;;;5040601;28;20274;-75
2024/03/10 04:28:09;;;;;;;6.82;6.22;;;7.60;99.90;;;;;;5042882;28;20253;-75
2024/03/10 04:30:36;;;;;;;7.00;6.32;;;7.50;99.90;;;;;;5039903;28;20262;-74
2024/03/10 04:33:03;;;;;;;6.38;5.88;;;7.30;99.90;;;;;;5038637;28;20255;-75
2024/03/10 04:35:30;;;;;;;5.80;5.40;;;7.20;99.90;;;;;;5037475;28;20235;-74
2024/03/10 04:37:57;;;;;;;6.18;5.63;;;7.20;99.90;;;;;;5038082;28;20215;-74
2024/03/10 04:40:25;;;;;;;5.90;5.30;;;7.20;99.90;;;;;;5040066;28;20266;-75
2024/03/10 04:42:52;;;;;;;6.72;6.03;;;7.30;99.90;;;;;;5039074;28;20226;-76
2024/03/10 04:45:19;;;;;;;5.40;5.00;;;7.30;99.90;;;;;;5041257;28;20234;-75
2024/03/10 04:47:46;;;;;;;5.18;4.78;;;7.30;99.90;;;;;;5039770;28;20215;-74
2024/03/10 04:50:13;;;;;;;4.45;4.15;;;7.30;99.90;;;;;;5040188;28;20225;-76
2024/03/10 04:52:41;;;;;;;4.88;4.47;;;7.30;99.90;;;;;;5039186;28;20268;-74
2024/03/10 04:55:10;;;;;;;4.50;4.20;;;7.40;99.90;;;;;;5045115;28;20289;-76
2024/03/10 04:57:38;;;;;;;4.15;3.85;;;7.40;99.90;;;;;;5039744;28;20227;-75
2024/03/10 05:00:09;;;;;;;3.80;3.42;;;7.40;99.90;;;;;;5042316;28;20650;-75
2024/03/10 05:02:36;;;;;;;3.63;3.33;;;7.50;99.90;;;;;;5040722;28;20230;-74
2024/03/10 05:05:03;;;;;;;4.50;4.20;;;7.50;99.90;;;;;;5040625;28;20252;-75
2024/03/10 05:07:30;;;;;;;4.60;4.30;;;7.40;99.90;;;;;;5041655;28;20251;-76
2024/03/10 05:09:58;;;;;;;4.78;4.38;;;7.40;99.90;;;;;;5041701;28;20301;-74
2024/03/10 05:12:25;;;;;;;4.88;4.57;;;7.30;99.90;;;;;;5041656;28;20229;-75
2024/03/10 05:14:53;;;;;;;4.68;4.38;;;7.30;99.90;;;;;;5037534;28;20256;-75
2024/03/10 05:17:20;;;;;;;4.25;3.90;;;7.30;99.90;;;;;;5038725;28;20242;-74
2024/03/10 05:19:47;;;;;;;4.45;4.15;;;7.30;99.90;;;;;;5041729;28;20254;-76
2024/03/10 05:22:14;;;;;;;4.82;4.43;;;7.40;99.90;;;;;;5039597;28;20250;-75
2024/03/10 05:24:42;;;;;;;5.72;5.32;;;7.40;99.90;;;;;;5045486;28;20750;-75
2024/03/10 05:27:10;;;;;;;5.45;5.05;;;7.40;99.90;;;;;;5037495;28;20215;-75
2024/03/10 05:29:38;;;;;;;4.90;4.60;;;7.40;99.90;;;;;;5039188;28;20305;-76
2024/03/10 05:32:06;;;;;;;6.00;5.50;;;7.40;99.90;;;;;;5039653;28;20219;-75
2024/03/10 05:34:35;;;;;;;5.75;5.30;;;7.40;99.90;;;;;;5039942;28;20286;-74
2024/03/10 05:37:02;;;;;;;5.32;4.93;;;7.40;99.90;;;;;;5039124;28;20310;-75
2024/03/10 05:39:29;;;;;;;5.25;4.85;;;7.40;99.90;;;;;;5037834;28;20223;-74
2024/03/10 05:41:56;;;;;;;6.22;5.72;;;7.40;99.90;;;;;;5036406;28;20247;-75
2024/03/10 05:44:23;;;;;;;5.32;4.93;;;7.30;99.90;;;;;;5038601;28;20230;-74
2024/03/10 05:46:50;;;;;;;5.78;5.28;;;7.30;99.90;;;;;;5042453;28;20780;-77
2024/03/10 05:49:18;;;;;;;5.93;5.43;;;7.30;99.90;;;;;;5043836;28;20364;-75
2024/03/10 05:51:47;;;;;;;5.20;4.80;;;7.30;99.90;;;;;;5042521;28;20223;-74
2024/03/10 05:54:14;;;;;;;5.47;4.97;;;7.30;99.90;;;;;;5049736;28;20203;-76
2024/03/10 05:56:42;;;;;;;5.78;5.38;;;7.30;99.90;;;;;;5036341;28;21347;-75
2024/03/10 05:59:09;;;;;;;5.68;5.28;;;7.30;99.90;;;;;;5039005;28;20305;-76
2024/03/10 06:01:36;;;;;;;5.30;4.90;;;7.30;99.90;;;;;;5041277;28;20226;-75
2024/03/10 06:04:04;;;;;;;4.72;4.40;;;7.30;99.90;;;;;;5041358;28;20222;-75
2024/03/10 06:06:33;;;;;;;4.90;4.50;;;7.30;99.90;;;;;;5041196;28;20222;-74
2024/03/10 06:09:00;;;;;;;4.53;4.22;;;7.40;99.90;;;;;;5039961;28;20316;-74
2024/03/10 06:11:28;;;;;;;5.25;4.80;;;7.40;99.90;;;;;;5043669;28;20222;-74
2024/03/10 06:13:55;;;;;;;5.32;4.93;;;7.40;99.90;;;;;;5039105;28;20201;-74
2024/03/10 06:16:22;;;;;;;5.00;4.60;;;7.50;99.90;;;;;;5040855;28;20238;-75
2024/03/10 06:27:03;;;;;;;5.35;4.95;;;7.50;99.90;;;;;;5039152;28;20230;-74
2024/03/10 06:29:30;;;;;;;4.75;4.43;;;7.50;99.90;;;;;;5041455;28;20276;-74
2024/03/10 06:31:58;;;;;;;4.47;4.18;;;7.50;99.90;;;;;;5037607;28;20222;-75
2024/03/10 06:34:25;;;;;;;4.55;4.25;;;7.50;99.90;;;;;;5039721;28;20277;-77
2024/03/10 06:36:54;;;;;;;4.72;4.38;;;7.50;99.90;;;;;;5042920;28;20219;-75
2024/03/10 06:39:21;;;;;;;5.00;4.70;;;7.50;99.90;;;;;;5041817;28;20245;-74
2024/03/10 06:41:48;;;;;;;4.25;3.95;;;7.50;99.90;;;;;;5044388;28;20257;-76
2024/03/10 06:44:17;;;;;;;4.22;3.92;;;7.60;99.90;;;;;;5043439;28;20199;-75
2024/03/10 06:46:44;;;;;;;5.10;4.70;;;7.60;99.90;;;;;;5045358;28;20265;-75
2024/03/10 06:49:11;;;;;;;5.07;4.60;;;7.60;99.90;;;;;;5043231;28;23111;-74
2024/03/10 06:51:38;;;;;;;4.55;4.25;;;7.60;99.90;;;;;;5047070;28;20258;-76
2024/03/10 06:54:06;;;;;;;4.75;4.35;;;7.60;99.90;;;;;;5047334;28;20580;-75
2024/03/10 06:56:33;;;;;;;5.18;4.80;;;7.60;99.90;;;;;;5044099;28;20258;-75
2024/03/10 06:59:02;;;;;;;5.07;4.68;;;7.60;99.90;;;;;;5043062;28;20533;-75
2024/03/10 07:01:30;;;;;;;4.80;4.40;;;7.60;99.90;;;;;;5041853;28;20226;-74
2024/03/10 07:03:57;;;;;;;4.30;4.00;;;7.60;99.90;;;;;;5041946;28;20194;-76
2024/03/10 07:06:26;;;;;;;4.70;4.40;;;7.60;99.90;;;;;;5046325;28;20745;-75
2024/03/10 07:08:54;;;;;;;4.45;4.10;;;7.70;99.90;;;;;;5044249;28;20765;-74
2024/03/10 07:11:22;;;;;;;3.92;3.70;;;7.70;99.90;;;;;;5045613;28;20226;-74
2024/03/10 07:13:50;;;;;;;4.40;4.10;;;7.80;99.90;;;;;;5046445;28;20231;-77
2024/03/10 07:16:17;;;;;;;4.70;4.38;;;7.80;99.90;;;;;;5045810;28;20756;-74
2024/03/10 07:18:44;;;;;;;4.90;4.60;;;7.80;99.90;;;;;;5046762;28;20304;-75
2024/03/10 07:21:11;;;;;;;5.45;5.05;;;7.80;99.90;;;;;;5037572;28;20219;-74
2024/03/10 07:23:38;;;;;;;4.97;4.57;;;7.80;99.90;;;;;;5045358;28;20288;-76
2024/03/10 07:26:05;;;;;;;5.80;5.40;;;7.80;99.90;;;;;;5045054;28;20806;-74
2024/03/10 07:28:33;;;;;;;6.95;6.40;;;7.80;99.90;;;;;;5045240;28;20246;-73
2024/03/10 07:31:00;;;;;;;6.43;5.93;;;7.80;99.90;;;;;;5041377;28;20206;-74
2024/03/10 07:33:27;;;;;;;6.32;5.82;;;7.80;99.90;;;;;;5043564;28;20510;-74
2024/03/10 07:35:55;;;;;;;5.97;5.47;;;7.80;99.90;;;;;;5044626;28;20584;-75
2024/03/10 07:38:22;;;;;;;6.10;5.60;;;7.80;99.90;;;;;;5041201;28;20905;-74
2024/03/10 07:40:49;;;;;;;5.95;5.50;;;7.80;99.90;;;;;;5043616;28;20241;-74
2024/03/10 07:43:17;;;;;;;6.63;5.93;;;7.80;99.90;;;;;;5040782;28;20258;-74
2024/03/10 07:45:45;;;;;;;6.78;6.18;;;7.80;99.90;;;;;;5043982;28;20245;-75
2024/03/10 07:48:16;;;;;;;6.57;5.93;;;7.90;99.90;;;;;;5042801;28;20226;-74
2024/03/10 07:50:43;;;;;;;6.60;5.88;;;7.90;99.90;;;;;;5050014;28;20198;-76
2024/03/10 07:53:10;;;;;;;5.53;5.03;;;7.90;99.90;;;;;;5050699;28;20567;-76
2024/03/10 07:55:37;;;;;;;5.13;4.68;;;7.90;99.90;;;;;;5045317;28;20210;-74
2024/03/10 07:58:05;;;;;;;4.78;4.38;;;7.90;99.90;;;;;;5043733;28;20304;-75
2024/03/10 08:00:32;;;;;;;4.85;4.50;;;8.00;99.90;;;;;;5043950;28;20214;-75
2024/03/10 08:03:01;;;;;;;4.93;4.53;;;8.00;99.90;;;;;;5043675;28;20754;-75
2024/03/10 08:05:29;;;;;;;6.15;5.65;;;7.90;99.90;;;;;;5041691;28;20209;-75
2024/03/10 08:07:57;;;;;;;7.07;6.47;;;7.90;99.90;;;;;;5039108;28;20214;-74
2024/03/10 08:10:24;;;;;;;5.68;5.28;;;7.90;99.90;;;;;;5043004;28;20335;-74
2024/03/10 08:12:52;;;;;;;6.35;5.85;;;7.90;99.90;;;;;;5037764;28;20300;-75
2024/03/10 08:15:19;;;;;;;5.70;5.22;;;7.90;99.90;;;;;;5044804;28;20195;-73
2024/03/10 08:17:46;;;;;;;6.45;5.95;;;7.80;99.90;;;;;;5044707;28;20246;-74
2024/03/10 08:20:15;;;;;;;8.88;7.95;;;7.80;99.90;;;;;;5042744;28;20243;-77
2024/03/10 08:22:42;;;;;;;7.57;6.85;;;7.80;99.90;;;;;;5037367;28;20254;-75
2024/03/10 08:25:10;;;;;;;7.53;6.82;;;7.90;99.90;;;;;;5039894;28;20211;-75
2024/03/10 08:27:37;;;;;;;7.20;6.60;;;7.90;99.90;;;;;;5037093;28;20241;-76
2024/03/10 08:30:08;;;;;;;7.43;6.82;;;7.90;99.90;;;;;;5036506;28;20230;-75
2024/03/10 08:32:36;;;;;;;7.32;6.72;;;8.00;99.90;;;;;;5036120;28;20246;-75
2024/03/10 08:35:07;;;;;;;7.30;6.70;;;7.90;99.90;;;;;;5039250;28;20257;-76
2024/03/10 08:37:36;;;;;;;6.75;6.25;;;7.90;99.90;;;;;;5037334;28;20222;-75
2024/03/10 08:40:09;;;;;;;7.20;6.60;;;7.90;99.90;;;;;;5038991;28;20958;-75
2024/03/10 08:42:37;;;;;;;7.60;7.00;;;7.90;99.90;;;;;;5038026;28;20724;-75
2024/03/10 08:45:05;;;;;;;7.40;6.72;;;7.80;99.90;;;;;;5034867;28;20719;-77
2024/03/10 08:47:32;;;;;;;7.30;6.70;;;7.70;99.90;;;;;;5041404;28;20947;-76
2024/03/10 08:50:00;;;;;;;7.05;6.38;;;7.60;99.90;;;;;;5045291;28;20231;-75
2024/03/10 08:52:27;;;;;;;7.15;6.55;;;7.60;99.90;;;;;;5041685;28;20245;-75
2024/03/10 08:54:56;;;;;;;7.07;6.47;;;7.60;99.90;;;;;;5042005;28;20206;-76
2024/03/10 08:57:23;;;;;;;7.45;6.85;;;7.70;99.90;;;;;;5045518;28;20570;-77
2024/03/10 08:59:50;;;;;;;7.70;7.10;;;7.70;99.90;;;;;;5047055;28;20291;-74
2024/03/10 09:02:17;;;;;;;6.95;6.35;;;7.70;99.90;;;;;;5035053;28;20678;-75
2024/03/10 09:04:44;;;;;;;7.45;6.85;;;7.70;99.90;;;;;;5036206;28;20260;-76
2024/03/10 09:07:11;;;;;;;8.02;7.28;;;7.80;99.90;;;;;;5034884;28;20226;-76
2024/03/10 09:09:38;;;;;;;8.07;7.38;;;7.80;99.90;;;;;;5037242;28;20677;-75
2024/03/10 09:12:07;;;;;;;8.65;7.95;;;7.80;99.90;;;;;;5035919;28;20272;-76
2024/03/10 09:14:35;;;;;;;8.55;7.75;;;7.90;99.90;;;;;;5037248;28;20310;-75
2024/03/10 09:17:03;;;;;;;8.88;8.13;;;7.90;99.90;;;;;;5036676;28;20963;-75
2024/03/10 09:19:30;;;;;;;7.30;6.70;;;7.90;99.90;;;;;;5036233;28;20248;-74
2024/03/10 09:21:58;;;;;;;7.65;7.03;;;7.90;99.90;;;;;;5033326;28;20218;-75
2024/03/10 09:24:26;;;;;;;7.50;6.90;;;7.90;99.90;;;;;;5037037;28;20199;-74
2024/03/10 09:26:56;;;;;;;8.32;7.68;;;7.90;99.90;;;;;;5036906;28;20219;-75
2024/03/10 09:29:26;;;;;;;9.05;7.97;;;7.80;99.90;;;;;;5035607;28;20226;-74
2024/03/10 09:31:55;;;;;;;9.27;8.50;;;7.70;99.90;;;;;;5037420;28;20310;-75
2024/03/10 09:34:22;;;;;;;8.55;7.85;;;7.60;99.90;;;;;;5042116;28;20198;-76
2024/03/10 09:36:49;;;;;;;8.18;7.47;;;7.70;99.90;;;;;;5037412;28;20211;-75
2024/03/10 09:39:16;;;;;;;7.72;7.03;;;8.00;99.90;;;;;;5037775;28;20223;-77
2024/03/10 09:41:43;;;;;;;11.57;7.57;;;8.30;99.90;;;;;;5033724;28;20641;-77
2024/03/10 09:44:17;;;;;;;8.15;7.43;;;8.40;99.90;;;;;;5034103;28;20222;-76
2024/03/10 09:46:49;;;;;;;8.45;7.75;;;8.40;99.90;;;;;;5036102;28;20300;-77
2024/03/10 09:49:18;;;;;;;8.50;7.70;;;8.30;99.90;;;;;;5042460;28;21280;-76
2024/03/10 09:51:49;;;;;;;7.63;6.95;;;8.20;99.90;;;;;;5033543;28;20804;-77
2024/03/10 09:54:17;;;;;;;7.07;6.57;;;8.10;99.90;;;;;;5031479;28;20837;-76
2024/03/10 09:56:44;;;;;;;7.93;7.25;;;7.90;99.90;;;;;;5035288;28;20334;-76
2024/03/10 09:59:18;;;;;;;7.05;6.45;;;7.80;99.90;;;;;;5035496;28;20270;-77
2024/03/10 10:01:48;;;;;;;6.95;6.30;;;7.90;99.90;;;;;;5029928;28;20217;-76
2024/03/10 10:04:16;;;;;;;7.45;6.82;;;7.90;99.90;;;;;;5031335;28;20239;-76
2024/03/10 10:06:44;;;;;;;6.78;6.22;;;7.90;99.90;;;;;;5027990;28;20219;-77
2024/03/10 10:09:11;;;;;;;10.07;7.18;;;7.80;99.90;;;;;;5034738;28;20216;-77
2024/03/10 10:11:38;;;;;;;10.85;6.22;;;7.80;99.90;;;;;;5033390;28;20352;-77
2024/03/10 10:14:10;;;;;;;7.47;6.88;;;7.70;99.90;;;;;;5036151;28;20209;-77
2024/03/10 10:16:37;;;;;;;89.30;10.65;;;7.60;99.90;;;;;;5040217;28;20325;-76
2024/03/10 10:19:07;;;;;;;8.15;7.40;;;7.60;99.90;;;;;;5040911;28;20218;-77
2024/03/10 10:21:36;;;;;;;18.77;7.47;;;7.60;99.90;;;;;;5041814;28;20226;-77
2024/03/10 10:24:04;;;;;;;96.78;9.90;;;7.50;99.90;;;;;;5040472;28;20219;-77
2024/03/10 10:26:31;;;;;;;8.13;7.43;;;7.40;99.90;;;;;;5041657;28;20223;-77
2024/03/10 10:29:07;;;;;;;7.32;6.82;;;7.30;99.90;;;;;;5040146;28;20932;-79
2024/03/10 10:31:34;;;;;;;7.50;6.95;;;7.30;99.90;;;;;;5045647;28;20233;-76
2024/03/10 10:34:03;;;;;;;7.07;6.47;;;7.30;99.90;;;;;;5036267;28;20304;-76
2024/03/10 10:36:34;;;;;;;6.90;6.40;;;7.40;99.90;;;;;;5039799;28;20799;-76
2024/03/10 10:39:08;;;;;;;6.95;6.35;;;7.40;99.90;;;;;;5042524;28;20310;-77
2024/03/10 10:41:35;;;;;;;11.05;7.57;;;7.50;99.90;;;;;;5043506;28;20280;-76
2024/03/10 10:44:05;;;;;;;17.60;7.40;;;7.50;99.90;;;;;;5046117;28;20202;-76
2024/03/10 10:46:35;;;;;;;11.18;5.90;;;7.60;99.90;;;;;;5050757;28;20226;-75
2024/03/10 10:49:04;;;;;;;205.55;14.18;;;7.50;99.90;;;;;;5040821;28;20235;-75
2024/03/10 10:51:33;;;;;;;7.32;6.72;;;7.50;99.90;;;;;;5052587;28;20214;-76
2024/03/10 10:54:07;;;;;;;19.60;7.80;;;7.50;99.90;;;;;;5045715;28;20746;-77
2024/03/10 10:56:34;;;;;;;10.75;7.53;;;7.40;99.90;;;;;;5052918;28;20219;-76
2024/03/10 10:59:03;;;;;;;9.23;7.95;;;7.40;99.90;;;;;;5044043;28;20227;-77
2024/03/10 11:01:30;;;;;;;11.77;8.77;;;7.30;99.90;;;;;;5042486;28;20250;-75
2024/03/10 11:03:57;;;;;;;38.10;10.05;;;7.30;99.90;;;;;;5046117;28;20244;-77
2024/03/10 11:06:32;;;;;;;8.60;7.85;;;7.20;99.90;;;;;;5051918;28;20254;-77
2024/03/10 11:08:59;;;;;;;8.07;7.47;;;7.20;99.90;;;;;;5052812;28;20286;-77
2024/03/10 11:11:48;;;;;;;9.35;8.52;;;7.20;99.90;;;;;;5047553;28;20276;-76
2024/03/10 11:14:16;;;;;;;13.63;7.75;;;7.30;99.90;;;;;;5045974;28;20196;-76
2024/03/10 11:16:45;;;;;;;272.85;36.10;;;7.40;99.90;;;;;;5041646;28;20712;-76
2024/03/10 11:19:14;;;;;;;524.75;65.25;;;7.50;99.90;;;;;;5050461;28;20897;-77
2024/03/10 11:21:47;;;;;;;250.68;35.80;;;7.50;99.90;;;;;;5043619;28;20317;-76
2024/03/10 11:24:17;;;;;;;299.75;34.50;;;7.60;99.90;;;;;;5044899;28;20210;-77
2024/03/10 11:26:44;;;;;;;76.20;17.52;;;7.70;99.90;;;;;;5042947;28;20251;-75
2024/03/10 11:29:26;;;;;;;38.10;13.35;;;7.80;99.90;;;;;;5044719;28;20262;-76
2024/03/10 11:31:57;;;;;;;44.13;15.63;;;7.80;99.90;;;;;;5045835;28;21019;-75
2024/03/10 11:34:25;;;;;;;23.67;10.32;;;7.80;99.90;;;;;;5039018;28;20211;-77
2024/03/10 11:36:54;;;;;;;11.40;7.93;;;7.90;99.90;;;;;;5046751;28;20274;-76
2024/03/10 11:39:21;;;;;;;14.15;7.93;;;7.90;99.90;;;;;;5059007;28;20206;-75
2024/03/10 11:41:49;;;;;;;8.77;6.93;;;7.90;99.90;;;;;;5042257;28;20312;-77
2024/03/10 11:44:17;;;;;;;7.95;7.25;;;7.90;99.90;;;;;;5043257;28;20226;-78
2024/03/10 11:46:44;;;;;;;7.57;6.97;;;7.80;99.90;;;;;;5055236;28;20226;-74
2024/03/10 11:49:13;;;;;;;7.70;7.03;;;7.80;99.90;;;;;;5039053;28;20898;-75
2024/03/10 11:51:40;;;;;;;8.25;7.55;;;7.80;99.90;;;;;;5038572;28;20275;-76
2024/03/10 11:54:13;;;;;;;8.95;6.88;;;7.80;99.90;;;;;;5036846;28;20735;-74
2024/03/10 11:56:42;;;;;;;72.55;11.48;;;7.80;99.90;;;;;;5039480;28;20223;-75
2024/03/10 11:59:11;;;;;;;6.28;5.78;;;7.70;99.90;;;;;;5032916;28;20980;-76
2024/03/10 12:01:39;;;;;;;7.43;5.95;;;7.50;99.90;;;;;;5039310;28;20218;-76
2024/03/10 12:04:09;;;;;;;68.97;12.63;;;7.40;99.90;;;;;;5037816;28;20209;-77
2024/03/10 12:06:37;;;;;;;6.13;5.53;;;7.30;99.90;;;;;;5039890;28;20284;-75
2024/03/10 12:09:12;;;;;;;53.90;8.23;;;7.30;99.90;;;;;;5041287;28;20218;-78
2024/03/10 12:11:43;;;;;;;7.05;6.50;;;7.30;99.90;;;;;;5042540;28;20506;-77
2024/03/10 12:14:11;;;;;;;6.20;5.70;;;7.20;99.90;;;;;;5042057;28;20264;-78
2024/03/10 12:16:39;;;;;;;6.25;5.75;;;7.10;99.90;;;;;;5046596;28;20740;-77
2024/03/10 12:19:07;;;;;;;6.30;5.75;;;7.10;99.90;;;;;;5045094;28;22065;-77
2024/03/10 12:21:36;;;;;;;5.78;5.28;;;7.10;99.90;;;;;;5048340;28;20306;-75
2024/03/10 12:24:06;;;;;;;6.40;5.90;;;7.10;99.90;;;;;;5040664;28;20705;-75
2024/03/10 12:26:33;;;;;;;129.07;10.27;;;7.10;99.90;;;;;;5048953;28;20227;-78
2024/03/10 12:29:03;;;;;;;6.45;5.90;;;7.00;99.90;;;;;;5068184;28;20219;-75
2024/03/10 12:31:30;;;;;;;7.55;6.35;;;6.90;99.90;;;;;;5033383;28;20338;-74
2024/03/10 12:33:57;;;;;;;7.97;6.85;;;6.80;99.90;;;;;;5043729;28;20250;-75
2024/03/10 12:36:24;;;;;;;5.75;5.35;;;6.80;99.90;;;;;;5036179;28;20253;-78
2024/03/10 12:38:53;;;;;;;10.18;6.78;;;6.90;99.90;;;;;;5040944;28;20502;-76
2024/03/10 12:41:23;;;;;;;5.70;5.20;;;6.90;99.90;;;;;;5035007;28;20233;-77
2024/03/10 12:43:50;;;;;;;204.93;13.30;;;7.00;99.90;;;;;;5038873;28;20218;-75
2024/03/10 12:46:19;;;;;;;63.13;8.80;;;7.00;99.90;;;;;;5050680;28;20238;-75
2024/03/10 12:48:47;;;;;;;6.88;6.38;;;6.90;99.90;;;;;;5043625;28;20223;-76
2024/03/10 12:51:14;;;;;;;10.50;9.60;;;6.80;99.90;;;;;;5043266;28;20777;-75
2024/03/10 12:53:41;;;;;;;8.52;7.82;;;6.90;99.90;;;;;;5037177;28;20227;-78
2024/03/10 12:56:11;;;;;;;7.20;6.38;;;7.00;99.90;;;;;;5044310;28;20623;-78
2024/03/10 12:58:38;;;;;;;6.97;6.38;;;7.00;99.90;;;;;;5049129;28;20226;-77
2024/03/10 13:01:05;;;;;;;5.93;5.53;;;7.10;99.90;;;;;;5052930;28;20233;-76
2024/03/10 13:03:35;;;;;;;6.05;5.43;;;7.10;99.90;;;;;;5049858;28;20211;-76
2024/03/10 13:06:02;;;;;;;5.90;5.50;;;7.10;99.90;;;;;;5043929;28;20205;-76
2024/03/10 13:08:29;;;;;;;5.90;5.40;;;7.10;99.90;;;;;;5038538;28;20257;-76
2024/03/10 13:10:56;;;;;;;5.70;5.30;;;7.00;99.90;;;;;;5039967;28;20213;-75
2024/03/10 13:13:24;;;;;;;13.23;6.28;;;7.00;99.90;;;;;;5040893;28;20300;-75
2024/03/10 13:15:51;;;;;;;22.08;7.78;;;7.00;99.90;;;;;;5044362;28;20207;-76
2024/03/10 13:18:18;;;;;;;292.10;17.65;;;6.90;99.90;;;;;;5041889;28;20219;-76
2024/03/10 13:20:46;;;;;;;106.03;13.63;;;6.80;99.90;;;;;;5042770;28;20234;-76